Weather reports worldwide

Advertisment
Pajares/Valgrande, Spain (8031): temperature & dewpoint: 07.07.2020 06:00:00 - 13.07.2020 06:00:00 (CEST)Pajares/Valgrande, Spain (8031): wind speed & gusts: 07.07.2020 06:00:00 - 13.07.2020 06:00:00 (CEST)Pajares/Valgrande, Spain (8031): wind direction: 07.07.2020 06:00:00 - 13.07.2020 06:00:00 (CEST)Pajares/Valgrande, Spain (8031): precipitation: 07.07.2020 06:00:00 - 13.07.2020 06:00:00 (CEST)
Date & Time tt [°C] td [°C] ff [km/h] ff [kn] fx [km/h] fx [kn] dd rr [mm]
13.07.2020 06:00:00 10,7 9,2 5 3 13 7 NW 0,1
13.07.2020 05:00:00 10,8 9,0 4 2 13 7 NW 0,0
13.07.2020 04:00:00 11,0 9,4 4 2 9 5 NNW 0,1
13.07.2020 03:00:00 11,2 9,4 5 3 12 7 NW 0,1
13.07.2020 02:00:00 11,3 9,7 3 2 14 7 W -
13.07.2020 01:00:00 11,2 9,4 3 1 9 5 WNW 0,0
13.07.2020 00:00:00 11,7 10,2 4 2 9 5 NNW 0,1
12.07.2020 23:00:00 12,0 10,4 4 2 13 7 NNW 0,1
12.07.2020 22:00:00 12,1 10,5 8 5 18 10 NNW 0,2
12.07.2020 21:00:00 12,3 10,8 9 5 26 14 NNW 0,1
12.07.2020 20:00:00 12,5 10,9 11 6 27 15 NW -
12.07.2020 19:00:00 13,5 11,7 12 7 28 15 NW 0,0
12.07.2020 18:00:00 14,9 11,7 12 6 29 16 NW 0,0
12.07.2020 17:00:00 17,8 11,8 10 6 18 10 NW 0,0
12.07.2020 16:00:00 18,0 11,8 8 4 17 9 NNW 0,0
12.07.2020 15:00:00 17,4 12,3 7 4 16 9 NW 0,0
12.07.2020 14:00:00 15,8 11,6 7 4 13 7 NW -
12.07.2020 13:00:00 15,8 11,3 4 2 9 5 NNW 0,0
12.07.2020 12:00:00 15,8 10,3 5 3 14 8 NW 0,0
12.07.2020 11:00:00 14,8 10,4 8 4 13 7 NW 0,0
12.07.2020 10:00:00 12,7 8,8 3 2 27 14 ENE 0,0
12.07.2020 09:00:00 14,1 8,1 4 2 25 14 SE 0,0
12.07.2020 08:00:00 13,3 8,0 16 9 44 24 SSE -
12.07.2020 07:00:00 12,7 7,0 2 1 16 9 WNW 0,0
12.07.2020 06:00:00 13,8 7,1 5 3 55 30 SSW 0,2
12.07.2020 05:00:00 13,2 8,5 31 17 51 27 S 0,0
12.07.2020 04:00:00 14,9 7,4 23 12 41 22 S 0,0
12.07.2020 03:00:00 15,4 7,7 19 11 38 20 SSE 0,0
12.07.2020 02:00:00 15,6 8,5 26 14 46 25 S -
12.07.2020 01:00:00 13,1 10,4 8 4 13 7 SSW 0,0
12.07.2020 00:00:00 11,5 9,6 6 3 11 6 S 0,0
11.07.2020 23:00:00 11,0 9,3 3 1 8 5 S 0,0
11.07.2020 22:00:00 11,6 9,8 2 1 6 4 S 0,0
11.07.2020 21:00:00 12,1 10,3 4 2 6 4 W 0,0
11.07.2020 20:00:00 12,4 10,3 2 1 8 4 WNW -
11.07.2020 19:00:00 13,0 10,8 4 2 8 4 NW 0,0
11.07.2020 18:00:00 13,0 10,8 3 1 9 5 NW 0,0
11.07.2020 17:00:00 12,9 10,4 4 2 9 5 NNW 0,0
11.07.2020 16:00:00 14,1 11,1 5 3 10 5 NW 0,0
11.07.2020 15:00:00 14,0 10,6 5 3 10 5 NW 0,0
11.07.2020 14:00:00 13,9 10,9 5 3 11 6 NW -
11.07.2020 13:00:00 13,3 10,3 6 3 10 5 NW 0,0
11.07.2020 12:00:00 12,6 9,6 5 3 9 5 NW 0,0
11.07.2020 11:00:00 13,1 10,0 4 2 8 4 NNW 0,0
11.07.2020 10:00:00 12,2 10,0 3 1 6 4 N 0,0
11.07.2020 09:00:00 10,2 8,3 2 1 5 3 NNE 0,0
11.07.2020 08:00:00 8,0 6,1 0 0 5 3 E -
11.07.2020 07:00:00 6,7 4,3 1 1 7 4 SSE 0,0
11.07.2020 06:00:00 6,5 4,6 3 2 9 5 SW 0,1
11.07.2020 05:00:00 6,7 5,1 4 2 6 3 SSW 0,0
11.07.2020 04:00:00 8,4 6,8 1 0 5 3 WSW 0,1
11.07.2020 03:00:00 8,6 7,0 3 2 6 3 NW 0,4
11.07.2020 02:00:00 8,9 7,3 1 1 4 2 NNW -
11.07.2020 01:00:00 9,0 7,4 0 0 6 3 WSW 0,0
11.07.2020 00:00:00 9,3 7,7 3 1 8 4 NNW 0,2
10.07.2020 23:00:00 9,4 7,8 4 2 11 6 WNW 0,3
10.07.2020 22:00:00 9,5 8,0 5 3 11 6 NW 0,6
10.07.2020 21:00:00 9,7 8,1 6 4 13 7 NW 0,6
10.07.2020 20:00:00 10,1 8,5 8 5 13 7 NW -
10.07.2020 19:00:00 10,7 8,9 6 3 10 5 NNW 0,0
10.07.2020 18:00:00 11,2 9,2 6 3 13 7 NNW 0,0
10.07.2020 17:00:00 11,3 9,4 6 3 16 9 NW 0,0
10.07.2020 16:00:00 11,5 9,4 6 4 15 8 NW 0,0
10.07.2020 15:00:00 11,9 9,8 6 3 13 7 WNW 0,0
10.07.2020 14:00:00 11,8 9,2 6 3 13 7 NW -
10.07.2020 13:00:00 12,6 9,2 5 3 12 6 NW 0,0
10.07.2020 12:00:00 14,5 9,6 7 4 14 7 NW 0,0
10.07.2020 11:00:00 11,1 9,3 3 2 8 4 NNW 0,0
10.07.2020 10:00:00 10,7 8,9 3 2 8 4 NW 0,0
10.07.2020 09:00:00 10,7 8,8 3 2 7 4 NW 0,0
10.07.2020 08:00:00 10,2 8,1 0 0 10 6 WSW -
10.07.2020 07:00:00 9,9 6,5 6 3 14 8 WSW 0,0
10.07.2020 06:00:00 11,0 6,4 10 5 12 7 SSW 0,0
10.07.2020 05:00:00 10,8 6,1 5 3 12 7 SSW 0,0
10.07.2020 04:00:00 11,2 7,6 10 5 12 6 SSW 0,0
10.07.2020 03:00:00 11,2 7,3 9 5 13 7 SSW 0,0
10.07.2020 02:00:00 11,6 5,9 5 3 14 8 SSW -
10.07.2020 01:00:00 12,6 5,5 10 5 13 7 SSW 0,0
10.07.2020 00:00:00 13,0 5,5 10 6 17 9 SSW 0,0
09.07.2020 23:00:00 15,7 5,0 15 8 27 15 S 0,0
09.07.2020 22:00:00 12,8 9,9 1 1 15 8 SW 0,0
09.07.2020 21:00:00 13,6 11,7 4 2 9 5 WNW 0,0
09.07.2020 20:00:00 13,8 12,0 6 3 10 5 NW -
09.07.2020 19:00:00 14,1 12,1 5 3 13 7 NW 0,0
09.07.2020 18:00:00 14,9 12,7 5 3 12 6 NNW 0,0
09.07.2020 17:00:00 15,0 13,1 3 2 10 5 NW 0,0
09.07.2020 16:00:00 14,8 12,4 5 3 11 6 NNW 0,0
09.07.2020 15:00:00 15,9 12,6 5 3 10 6 NW 0,0
09.07.2020 14:00:00 17,7 13,1 5 3 16 9 NW -
09.07.2020 13:00:00 18,3 13,0 7 4 11 6 NW 0,0
09.07.2020 12:00:00 18,6 10,4 6 3 10 6 NNW 0,0
09.07.2020 11:00:00 18,8 7,3 5 3 11 6 NW 0,0
09.07.2020 10:00:00 17,5 7,3 7 4 13 7 NW 0,0
09.07.2020 09:00:00 18,0 7,4 3 2 6 4 ESE 0,0
09.07.2020 08:00:00 14,1 8,1 4 2 10 5 SSW -
09.07.2020 07:00:00 12,8 5,0 6 3 15 8 SSW 0,0
09.07.2020 06:00:00 12,5 5,6 10 6 13 7 SSW 0,0
09.07.2020 05:00:00 12,5 5,9 7 4 13 7 SW 0,0
09.07.2020 04:00:00 13,4 5,0 8 4 14 8 SSW 0,0
09.07.2020 03:00:00 13,8 5,0 4 2 12 7 NW 0,0
09.07.2020 02:00:00 16,2 4,6 4 2 22 12 S -
09.07.2020 01:00:00 16,4 3,8 9 5 26 14 SSE 0,0
09.07.2020 00:00:00 16,7 3,4 9 5 27 15 S 0,0
08.07.2020 23:00:00 15,7 7,7 13 7 23 13 SSE 0,0
08.07.2020 22:00:00 14,2 7,7 6 3 26 14 NNW 0,0
08.07.2020 21:00:00 14,1 9,6 1 1 24 13 N 0,0
08.07.2020 20:00:00 13,2 11,2 3 1 8 4 NW -
08.07.2020 19:00:00 13,4 11,2 2 1 11 6 NW 0,0
08.07.2020 18:00:00 14,1 11,6 4 2 8 4 NW 0,0
08.07.2020 17:00:00 15,2 12,3 4 2 11 6 NNW 0,0
08.07.2020 16:00:00 15,9 12,2 5 3 13 7 NW 0,0
08.07.2020 15:00:00 17,7 13,3 5 3 16 9 NW 0,0
08.07.2020 14:00:00 20,0 12,7 8 4 16 9 NNW -
08.07.2020 13:00:00 21,8 8,3 4 2 24 13 NNW 0,0
08.07.2020 12:00:00 23,7 6,4 11 6 27 14 ESE 0,0
08.07.2020 11:00:00 22,1 5,9 13 7 30 16 SE 0,0
08.07.2020 10:00:00 20,7 5,9 13 7 29 16 S 0,0
08.07.2020 09:00:00 19,5 5,5 14 8 34 18 S 0,0
08.07.2020 08:00:00 18,6 5,5 23 12 36 20 S -
08.07.2020 07:00:00 17,9 5,5 22 12 36 19 S 0,0
08.07.2020 06:00:00 17,8 5,8 14 8 23 12 S 0,0
08.07.2020 05:00:00 17,7 6,5 16 9 22 12 S 0,0
08.07.2020 04:00:00 15,6 5,8 11 6 15 8 SSW 0,0
08.07.2020 03:00:00 14,9 6,2 8 4 11 6 SSW 0,0
08.07.2020 02:00:00 15,6 6,5 10 6 14 8 SSW -
08.07.2020 01:00:00 15,7 8,9 10 6 13 7 SSW 0,0
08.07.2020 00:00:00 14,5 9,6 8 4 10 6 SSW 0,0
07.07.2020 23:00:00 14,8 9,6 5 3 10 5 SSW 0,0
07.07.2020 22:00:00 16,4 10,5 3 2 10 5 SW 0,0
07.07.2020 21:00:00 17,8 12,4 1 0 6 3 NW 0,0
07.07.2020 20:00:00 18,1 12,7 4 2 9 5 WNW -
07.07.2020 19:00:00 18,3 13,0 5 3 11 6 NW 0,0
07.07.2020 18:00:00 18,3 12,5 6 4 13 7 WNW 0,0
07.07.2020 17:00:00 19,0 12,2 6 3 12 6 WNW 0,0
07.07.2020 16:00:00 18,6 13,1 6 4 15 8 WNW 0,0
07.07.2020 15:00:00 18,6 13,5 6 3 12 7 WNW 0,0
07.07.2020 14:00:00 19,4 12,4 5 3 20 11 NNW -
07.07.2020 13:00:00 22,8 9,2 8 4 21 11 SE 0,0
07.07.2020 12:00:00 21,5 9,7 9 5 19 10 SSE 0,0
07.07.2020 11:00:00 20,3 11,0 11 6 22 12 S 0,0
07.07.2020 10:00:00 18,7 10,3 12 6 21 11 SSE 0,0
07.07.2020 09:00:00 17,2 9,2 11 6 22 12 S 0,0
07.07.2020 08:00:00 16,8 8,8 12 6 25 14 SSE -
07.07.2020 07:00:00 15,3 8,3 11 6 23 13 S 0,0
07.07.2020 06:00:00 14,8 8,8 11 6 17 9 S 0,0

tt = temperature
td = dewpoint
ff = wind speed
fx = gusts
dd = wind direction
rr = precipitation

Next stations